sensor_id;sensor_type;location;lat;lon;timestamp;P1;durP1;ratioP1;P2;durP2;ratioP2
22939;SDS011;11636;52.086;5.090;2023-09-19T00:02:57;4.97;;;1.40;;
22939;SDS011;11636;52.086;5.090;2023-09-19T00:05:48;3.40;;;1.20;;
22939;SDS011;11636;52.086;5.090;2023-09-19T00:08:43;4.10;;;1.30;;
22939;SDS011;11636;52.086;5.090;2023-09-19T00:11:37;4.45;;;1.48;;
22939;SDS011;11636;52.086;5.090;2023-09-19T00:14:32;7.50;;;1.50;;
22939;SDS011;11636;52.086;5.090;2023-09-19T00:17:29;4.07;;;1.20;;
22939;SDS011;11636;52.086;5.090;2023-09-19T00:20:18;4.80;;;1.50;;
22939;SDS011;11636;52.086;5.090;2023-09-19T00:23:12;6.07;;;1.70;;
22939;SDS011;11636;52.086;5.090;2023-09-19T00:26:00;6.93;;;1.75;;
22939;SDS011;11636;52.086;5.090;2023-09-19T00:28:54;5.05;;;1.40;;
22939;SDS011;11636;52.086;5.090;2023-09-19T00:31:50;4.72;;;1.20;;
22939;SDS011;11636;52.086;5.090;2023-09-19T00:34:37;4.80;;;1.42;;
22939;SDS011;11636;52.086;5.090;2023-09-19T00:37:31;6.07;;;1.45;;
22939;SDS011;11636;52.086;5.090;2023-09-19T00:40:18;5.53;;;1.52;;
22939;SDS011;11636;52.086;5.090;2023-09-19T00:43:14;6.38;;;1.90;;
22939;SDS011;11636;52.086;5.090;2023-09-19T00:46:01;6.07;;;2.33;;
22939;SDS011;11636;52.086;5.090;2023-09-19T00:48:57;3.88;;;1.60;;
22939;SDS011;11636;52.086;5.090;2023-09-19T00:51:45;4.22;;;1.40;;
22939;SDS011;11636;52.086;5.090;2023-09-19T00:54:40;3.63;;;1.30;;
22939;SDS011;11636;52.086;5.090;2023-09-19T00:57:34;2.95;;;1.00;;
22939;SDS011;11636;52.086;5.090;2023-09-19T01:00:29;4.03;;;1.60;;
22939;SDS011;11636;52.086;5.090;2023-09-19T01:03:17;6.13;;;1.85;;
22939;SDS011;11636;52.086;5.090;2023-09-19T01:06:11;5.55;;;1.55;;
22939;SDS011;11636;52.086;5.090;2023-09-19T01:09:05;5.53;;;1.50;;
22939;SDS011;11636;52.086;5.090;2023-09-19T01:12:00;5.88;;;1.45;;
22939;SDS011;11636;52.086;5.090;2023-09-19T01:14:55;5.07;;;1.40;;
22939;SDS011;11636;52.086;5.090;2023-09-19T01:17:59;4.93;;;1.83;;
22939;SDS011;11636;52.086;5.090;2023-09-19T01:21:21;4.20;;;1.60;;
22939;SDS011;11636;52.086;5.090;2023-09-19T01:30:14;4.45;;;1.48;;
22939;SDS011;11636;52.086;5.090;2023-09-19T01:33:15;5.95;;;1.77;;
22939;SDS011;11636;52.086;5.090;2023-09-19T01:36:03;3.90;;;1.67;;
22939;SDS011;11636;52.086;5.090;2023-09-19T01:38:58;6.78;;;1.83;;
22939;SDS011;11636;52.086;5.090;2023-09-19T01:41:59;11.68;;;2.05;;
22939;SDS011;11636;52.086;5.090;2023-09-19T01:45:07;7.32;;;1.92;;
22939;SDS011;11636;52.086;5.090;2023-09-19T01:51:10;5.05;;;1.55;;
22939;SDS011;11636;52.086;5.090;2023-09-19T01:54:10;6.40;;;1.80;;
22939;SDS011;11636;52.086;5.090;2023-09-19T01:57:09;7.20;;;1.75;;
22939;SDS011;11636;52.086;5.090;2023-09-19T02:00:13;9.98;;;2.10;;
22939;SDS011;11636;52.086;5.090;2023-09-19T02:03:11;5.95;;;1.65;;
22939;SDS011;11636;52.086;5.090;2023-09-19T02:06:05;8.05;;;2.33;;
22939;SDS011;11636;52.086;5.090;2023-09-19T02:08:58;7.47;;;2.03;;
22939;SDS011;11636;52.086;5.090;2023-09-19T02:11:52;8.65;;;1.85;;
22939;SDS011;11636;52.086;5.090;2023-09-19T02:14:48;6.38;;;2.08;;
22939;SDS011;11636;52.086;5.090;2023-09-19T02:17:35;7.25;;;2.03;;
22939;SDS011;11636;52.086;5.090;2023-09-19T02:20:29;7.30;;;2.10;;
22939;SDS011;11636;52.086;5.090;2023-09-19T02:23:17;7.47;;;2.13;;
22939;SDS011;11636;52.086;5.090;2023-09-19T02:26:10;8.38;;;2.55;;
22939;SDS011;11636;52.086;5.090;2023-09-19T02:28:58;13.10;;;2.35;;
22939;SDS011;11636;52.086;5.090;2023-09-19T02:31:54;7.82;;;2.10;;
22939;SDS011;11636;52.086;5.090;2023-09-19T02:34:42;9.40;;;2.20;;
22939;SDS011;11636;52.086;5.090;2023-09-19T02:37:37;11.13;;;2.85;;
22939;SDS011;11636;52.086;5.090;2023-09-19T02:40:24;7.97;;;2.45;;
22939;SDS011;11636;52.086;5.090;2023-09-19T02:43:19;7.97;;;2.47;;
22939;SDS011;11636;52.086;5.090;2023-09-19T02:46:13;8.07;;;1.98;;
22939;SDS011;11636;52.086;5.090;2023-09-19T02:49:07;10.32;;;2.40;;
22939;SDS011;11636;52.086;5.090;2023-09-19T02:51:54;7.05;;;2.13;;
22939;SDS011;11636;52.086;5.090;2023-09-19T02:54:48;10.23;;;2.40;;
22939;SDS011;11636;52.086;5.090;2023-09-19T02:57:36;9.25;;;2.05;;
22939;SDS011;11636;52.086;5.090;2023-09-19T03:00:33;7.47;;;2.00;;
22939;SDS011;11636;52.086;5.090;2023-09-19T03:03:22;9.18;;;2.17;;
22939;SDS011;11636;52.086;5.090;2023-09-19T03:06:15;9.43;;;2.47;;
22939;SDS011;11636;52.086;5.090;2023-09-19T03:09:06;9.82;;;2.60;;
22939;SDS011;11636;52.086;5.090;2023-09-19T03:12:06;9.20;;;2.45;;
22939;SDS011;11636;52.086;5.090;2023-09-19T03:15:02;8.52;;;1.88;;
22939;SDS011;11636;52.086;5.090;2023-09-19T03:17:51;10.23;;;2.47;;
22939;SDS011;11636;52.086;5.090;2023-09-19T03:20:53;7.07;;;1.95;;
22939;SDS011;11636;52.086;5.090;2023-09-19T03:23:48;6.25;;;1.88;;
22939;SDS011;11636;52.086;5.090;2023-09-19T03:26:41;7.10;;;2.15;;
22939;SDS011;11636;52.086;5.090;2023-09-19T03:29:35;7.43;;;2.15;;
22939;SDS011;11636;52.086;5.090;2023-09-19T03:32:29;10.70;;;2.60;;
22939;SDS011;11636;52.086;5.090;2023-09-19T03:35:17;11.68;;;2.83;;
22939;SDS011;11636;52.086;5.090;2023-09-19T03:38:11;11.30;;;3.03;;
22939;SDS011;11636;52.086;5.090;2023-09-19T03:41:05;7.53;;;2.30;;
22939;SDS011;11636;52.086;5.090;2023-09-19T03:43:59;13.32;;;3.10;;
22939;SDS011;11636;52.086;5.090;2023-09-19T03:46:46;7.07;;;2.33;;
22939;SDS011;11636;52.086;5.090;2023-09-19T03:49:40;12.48;;;2.70;;
22939;SDS011;11636;52.086;5.090;2023-09-19T03:52:34;13.98;;;2.70;;
22939;SDS011;11636;52.086;5.090;2023-09-19T03:55:22;8.20;;;2.50;;
22939;SDS011;11636;52.086;5.090;2023-09-19T03:58:15;9.25;;;2.30;;
22939;SDS011;11636;52.086;5.090;2023-09-19T04:01:02;8.38;;;2.35;;
22939;SDS011;11636;52.086;5.090;2023-09-19T04:03:56;13.10;;;2.78;;
22939;SDS011;11636;52.086;5.090;2023-09-19T04:06:44;10.35;;;2.53;;
22939;SDS011;11636;52.086;5.090;2023-09-19T04:09:37;10.70;;;2.72;;
22939;SDS011;11636;52.086;5.090;2023-09-19T04:12:31;8.45;;;2.42;;
22939;SDS011;11636;52.086;5.090;2023-09-19T04:15:19;13.95;;;2.88;;
22939;SDS011;11636;52.086;5.090;2023-09-19T04:18:16;8.80;;;2.60;;
22939;SDS011;11636;52.086;5.090;2023-09-19T04:21:10;9.98;;;2.70;;
22939;SDS011;11636;52.086;5.090;2023-09-19T04:23:58;12.10;;;2.88;;
22939;SDS011;11636;52.086;5.090;2023-09-19T04:26:51;11.63;;;2.63;;
22939;SDS011;11636;52.086;5.090;2023-09-19T04:29:39;13.23;;;2.83;;
22939;SDS011;11636;52.086;5.090;2023-09-19T04:32:33;12.25;;;2.83;;
22939;SDS011;11636;52.086;5.090;2023-09-19T04:35:28;7.10;;;2.00;;
22939;SDS011;11636;52.086;5.090;2023-09-19T04:38:18;8.45;;;2.30;;
22939;SDS011;11636;52.086;5.090;2023-09-19T04:41:18;14.07;;;3.00;;
22939;SDS011;11636;52.086;5.090;2023-09-19T04:44:12;9.85;;;2.60;;
22939;SDS011;11636;52.086;5.090;2023-09-19T04:47:00;11.75;;;2.42;;
22939;SDS011;11636;52.086;5.090;2023-09-19T04:49:53;7.25;;;2.20;;
22939;SDS011;11636;52.086;5.090;2023-09-19T04:52:41;8.70;;;1.98;;
22939;SDS011;11636;52.086;5.090;2023-09-19T04:55:38;9.73;;;2.28;;
22939;SDS011;11636;52.086;5.090;2023-09-19T04:58:31;10.88;;;2.45;;
22939;SDS011;11636;52.086;5.090;2023-09-19T05:01:19;11.25;;;2.65;;
22939;SDS011;11636;52.086;5.090;2023-09-19T05:04:16;9.25;;;2.50;;
22939;SDS011;11636;52.086;5.090;2023-09-19T05:07:09;6.25;;;2.05;;
22939;SDS011;11636;52.086;5.090;2023-09-19T05:10:05;9.20;;;2.47;;
22939;SDS011;11636;52.086;5.090;2023-09-19T05:12:59;7.25;;;2.08;;
22939;SDS011;11636;52.086;5.090;2023-09-19T05:15:47;14.65;;;3.03;;
22939;SDS011;11636;52.086;5.090;2023-09-19T05:18:42;7.95;;;2.58;;
22939;SDS011;11636;52.086;5.090;2023-09-19T05:21:35;8.48;;;2.30;;
22939;SDS011;11636;52.086;5.090;2023-09-19T05:24:23;9.07;;;2.45;;
22939;SDS011;11636;52.086;5.090;2023-09-19T05:27:19;9.90;;;2.50;;
22939;SDS011;11636;52.086;5.090;2023-09-19T05:30:13;6.28;;;2.10;;
22939;SDS011;11636;52.086;5.090;2023-09-19T05:33:02;8.43;;;2.33;;
22939;SDS011;11636;52.086;5.090;2023-09-19T05:35:57;10.10;;;2.70;;
22939;SDS011;11636;52.086;5.090;2023-09-19T05:38:45;8.18;;;2.22;;
22939;SDS011;11636;52.086;5.090;2023-09-19T05:41:41;12.00;;;2.78;;
22939;SDS011;11636;52.086;5.090;2023-09-19T05:44:29;16.20;;;3.30;;
22939;SDS011;11636;52.086;5.090;2023-09-19T05:47:22;11.40;;;2.72;;
22939;SDS011;11636;52.086;5.090;2023-09-19T05:50:18;17.48;;;3.30;;
22939;SDS011;11636;52.086;5.090;2023-09-19T05:53:12;9.82;;;2.53;;
22939;SDS011;11636;52.086;5.090;2023-09-19T05:56:07;9.38;;;2.38;;
22939;SDS011;11636;52.086;5.090;2023-09-19T05:58:56;9.00;;;2.78;;
22939;SDS011;11636;52.086;5.090;2023-09-19T06:01:49;11.52;;;2.70;;
22939;SDS011;11636;52.086;5.090;2023-09-19T06:04:45;22.25;;;4.03;;
22939;SDS011;11636;52.086;5.090;2023-09-19T06:07:32;17.25;;;4.45;;
22939;SDS011;11636;52.086;5.090;2023-09-19T06:10:30;14.55;;;3.75;;
22939;SDS011;11636;52.086;5.090;2023-09-19T06:13:25;12.98;;;3.00;;
22939;SDS011;11636;52.086;5.090;2023-09-19T06:16:20;12.02;;;3.10;;
22939;SDS011;11636;52.086;5.090;2023-09-19T06:19:15;12.15;;;2.80;;
22939;SDS011;11636;52.086;5.090;2023-09-19T06:22:02;13.20;;;3.20;;
22939;SDS011;11636;52.086;5.090;2023-09-19T06:24:56;12.05;;;3.00;;
22939;SDS011;11636;52.086;5.090;2023-09-19T06:27:44;11.90;;;3.35;;
22939;SDS011;11636;52.086;5.090;2023-09-19T06:30:39;16.48;;;4.03;;
22939;SDS011;11636;52.086;5.090;2023-09-19T06:33:36;9.25;;;2.95;;
22939;SDS011;11636;52.086;5.090;2023-09-19T06:36:32;10.52;;;2.90;;
22939;SDS011;11636;52.086;5.090;2023-09-19T06:39:26;13.45;;;3.38;;
22939;SDS011;11636;52.086;5.090;2023-09-19T06:42:14;10.93;;;2.97;;
22939;SDS011;11636;52.086;5.090;2023-09-19T06:45:12;16.25;;;3.60;;
22939;SDS011;11636;52.086;5.090;2023-09-19T06:48:04;14.07;;;3.38;;
22939;SDS011;11636;52.086;5.090;2023-09-19T06:50:59;11.10;;;2.90;;
22939;SDS011;11636;52.086;5.090;2023-09-19T06:53:57;14.18;;;3.47;;
22939;SDS011;11636;52.086;5.090;2023-09-19T06:56:45;16.08;;;3.38;;
22939;SDS011;11636;52.086;5.090;2023-09-19T06:59:38;14.00;;;3.80;;
22939;SDS011;11636;52.086;5.090;2023-09-19T07:02:27;15.70;;;3.38;;
22939;SDS011;11636;52.086;5.090;2023-09-19T07:05:21;13.32;;;2.83;;
22939;SDS011;11636;52.086;5.090;2023-09-19T07:08:09;19.10;;;3.60;;
22939;SDS011;11636;52.086;5.090;2023-09-19T07:11:07;23.20;;;4.63;;
22939;SDS011;11636;52.086;5.090;2023-09-19T07:14:00;11.05;;;3.05;;
22939;SDS011;11636;52.086;5.090;2023-09-19T07:16:48;13.13;;;3.50;;
22939;SDS011;11636;52.086;5.090;2023-09-19T07:19:49;15.85;;;3.60;;
22939;SDS011;11636;52.086;5.090;2023-09-19T07:22:37;17.33;;;3.90;;
22939;SDS011;11636;52.086;5.090;2023-09-19T07:25:32;15.48;;;3.63;;
22939;SDS011;11636;52.086;5.090;2023-09-19T07:28:26;18.20;;;3.90;;
22939;SDS011;11636;52.086;5.090;2023-09-19T07:31:15;18.10;;;3.47;;
22939;SDS011;11636;52.086;5.090;2023-09-19T07:34:10;12.57;;;2.95;;
22939;SDS011;11636;52.086;5.090;2023-09-19T07:37:03;17.33;;;3.50;;
22939;SDS011;11636;52.086;5.090;2023-09-19T07:39:51;15.73;;;3.75;;
22939;SDS011;11636;52.086;5.090;2023-09-19T07:42:45;15.40;;;3.17;;
22939;SDS011;11636;52.086;5.090;2023-09-19T07:45:40;20.10;;;3.72;;
22939;SDS011;11636;52.086;5.090;2023-09-19T07:48:35;16.42;;;3.42;;
22939;SDS011;11636;52.086;5.090;2023-09-19T07:51:24;15.85;;;3.75;;
22939;SDS011;11636;52.086;5.090;2023-09-19T07:54:18;17.20;;;3.80;;
22939;SDS011;11636;52.086;5.090;2023-09-19T07:57:13;19.75;;;3.90;;
22939;SDS011;11636;52.086;5.090;2023-09-19T08:00:01;16.45;;;3.60;;
22939;SDS011;11636;52.086;5.090;2023-09-19T08:02:58;22.27;;;4.35;;
22939;SDS011;11636;52.086;5.090;2023-09-19T08:05:55;17.58;;;3.72;;
22939;SDS011;11636;52.086;5.090;2023-09-19T08:08:51;17.83;;;3.80;;
22939;SDS011;11636;52.086;5.090;2023-09-19T08:11:40;16.80;;;3.53;;
22939;SDS011;11636;52.086;5.090;2023-09-19T08:14:34;18.08;;;3.80;;
22939;SDS011;11636;52.086;5.090;2023-09-19T08:17:28;21.73;;;4.22;;
22939;SDS011;11636;52.086;5.090;2023-09-19T08:20:16;12.93;;;4.38;;
22939;SDS011;11636;52.086;5.090;2023-09-19T08:23:11;15.35;;;4.18;;
22939;SDS011;11636;52.086;5.090;2023-09-19T08:25:58;18.50;;;3.92;;
22939;SDS011;11636;52.086;5.090;2023-09-19T08:28:56;18.33;;;4.00;;
22939;SDS011;11636;52.086;5.090;2023-09-19T08:31:46;19.83;;;4.20;;
22939;SDS011;11636;52.086;5.090;2023-09-19T08:34:44;13.32;;;3.70;;
22939;SDS011;11636;52.086;5.090;2023-09-19T08:37:38;12.63;;;3.38;;
22939;SDS011;11636;52.086;5.090;2023-09-19T08:40:32;12.30;;;3.22;;
22939;SDS011;11636;52.086;5.090;2023-09-19T08:43:23;16.15;;;3.17;;
22939;SDS011;11636;52.086;5.090;2023-09-19T08:46:17;18.77;;;4.53;;
22939;SDS011;11636;52.086;5.090;2023-09-19T08:49:19;15.77;;;3.50;;
22939;SDS011;11636;52.086;5.090;2023-09-19T08:52:27;15.60;;;3.53;;
22939;SDS011;11636;52.086;5.090;2023-09-19T08:55:28;15.32;;;3.15;;
22939;SDS011;11636;52.086;5.090;2023-09-19T08:58:25;17.10;;;3.50;;
22939;SDS011;11636;52.086;5.090;2023-09-19T09:01:24;15.30;;;3.60;;
22939;SDS011;11636;52.086;5.090;2023-09-19T09:04:15;14.05;;;3.13;;
22939;SDS011;11636;52.086;5.090;2023-09-19T09:07:12;12.23;;;3.00;;
22939;SDS011;11636;52.086;5.090;2023-09-19T09:10:07;14.95;;;3.28;;
22939;SDS011;11636;52.086;5.090;2023-09-19T09:13:03;12.73;;;3.30;;
22939;SDS011;11636;52.086;5.090;2023-09-19T09:16:00;15.88;;;3.67;;
22939;SDS011;11636;52.086;5.090;2023-09-19T09:18:47;12.13;;;3.75;;
22939;SDS011;11636;52.086;5.090;2023-09-19T09:21:46;15.90;;;3.63;;
22939;SDS011;11636;52.086;5.090;2023-09-19T09:24:34;13.55;;;3.58;;
22939;SDS011;11636;52.086;5.090;2023-09-19T09:27:29;14.52;;;3.80;;
22939;SDS011;11636;52.086;5.090;2023-09-19T09:30:36;17.17;;;3.60;;
22939;SDS011;11636;52.086;5.090;2023-09-19T09:33:33;14.95;;;3.20;;
22939;SDS011;11636;52.086;5.090;2023-09-19T09:39:30;14.20;;;3.30;;
22939;SDS011;11636;52.086;5.090;2023-09-19T09:42:32;11.30;;;2.83;;
22939;SDS011;11636;52.086;5.090;2023-09-19T09:45:25;15.35;;;3.40;;
22939;SDS011;11636;52.086;5.090;2023-09-19T09:48:30;16.20;;;3.30;;
22939;SDS011;11636;52.086;5.090;2023-09-19T09:51:34;18.85;;;3.90;;
22939;SDS011;11636;52.086;5.090;2023-09-19T09:54:21;19.58;;;3.22;;
22939;SDS011;11636;52.086;5.090;2023-09-19T09:57:15;11.52;;;2.72;;
22939;SDS011;11636;52.086;5.090;2023-09-19T10:00:14;17.38;;;3.20;;
22939;SDS011;11636;52.086;5.090;2023-09-19T10:03:21;17.63;;;3.13;;
22939;SDS011;11636;52.086;5.090;2023-09-19T10:06:18;13.52;;;3.30;;
22939;SDS011;11636;52.086;5.090;2023-09-19T10:09:18;15.68;;;2.97;;
22939;SDS011;11636;52.086;5.090;2023-09-19T10:12:15;15.18;;;3.00;;
22939;SDS011;11636;52.086;5.090;2023-09-19T10:15:12;14.32;;;3.17;;
22939;SDS011;11636;52.086;5.090;2023-09-19T10:18:10;12.90;;;2.88;;
22939;SDS011;11636;52.086;5.090;2023-09-19T10:21:04;15.48;;;4.18;;
22939;SDS011;11636;52.086;5.090;2023-09-19T10:24:00;9.98;;;2.50;;
22939;SDS011;11636;52.086;5.090;2023-09-19T10:26:50;13.80;;;3.00;;
22939;SDS011;11636;52.086;5.090;2023-09-19T10:29:45;10.50;;;2.78;;
22939;SDS011;11636;52.086;5.090;2023-09-19T10:32:36;18.80;;;3.42;;
22939;SDS011;11636;52.086;5.090;2023-09-19T10:35:34;9.70;;;2.47;;
22939;SDS011;11636;52.086;5.090;2023-09-19T10:38:28;10.43;;;2.70;;
22939;SDS011;11636;52.086;5.090;2023-09-19T10:41:24;11.77;;;3.30;;
22939;SDS011;11636;52.086;5.090;2023-09-19T10:44:13;9.27;;;2.63;;
22939;SDS011;11636;52.086;5.090;2023-09-19T10:47:08;10.90;;;2.50;;
22939;SDS011;11636;52.086;5.090;2023-09-19T10:49:57;15.50;;;2.35;;
22939;SDS011;11636;52.086;5.090;2023-09-19T10:52:51;15.48;;;3.33;;
22939;SDS011;11636;52.086;5.090;2023-09-19T10:55:59;12.65;;;3.13;;
22939;SDS011;11636;52.086;5.090;2023-09-19T10:59:05;10.20;;;2.45;;
22939;SDS011;11636;52.086;5.090;2023-09-19T11:02:17;9.90;;;2.17;;
22939;SDS011;11636;52.086;5.090;2023-09-19T11:05:13;7.45;;;2.00;;
22939;SDS011;11636;52.086;5.090;2023-09-19T11:08:21;10.75;;;2.13;;
22939;SDS011;11636;52.086;5.090;2023-09-19T11:11:41;17.63;;;2.58;;
22939;SDS011;11636;52.086;5.090;2023-09-19T11:14:39;9.88;;;2.13;;
22939;SDS011;11636;52.086;5.090;2023-09-19T11:20:26;13.52;;;2.33;;
22939;SDS011;11636;52.086;5.090;2023-09-19T11:23:26;14.48;;;2.58;;
22939;SDS011;11636;52.086;5.090;2023-09-19T11:26:41;9.43;;;1.98;;
22939;SDS011;11636;52.086;5.090;2023-09-19T11:29:34;8.32;;;1.80;;
22939;SDS011;11636;52.086;5.090;2023-09-19T11:38:57;10.65;;;2.38;;
22939;SDS011;11636;52.086;5.090;2023-09-19T11:41:53;10.63;;;1.90;;
22939;SDS011;11636;52.086;5.090;2023-09-19T11:44:49;8.27;;;2.13;;
22939;SDS011;11636;52.086;5.090;2023-09-19T11:47:38;11.20;;;2.05;;
22939;SDS011;11636;52.086;5.090;2023-09-19T11:50:32;7.35;;;1.55;;
22939;SDS011;11636;52.086;5.090;2023-09-19T11:53:31;8.77;;;1.67;;
22939;SDS011;11636;52.086;5.090;2023-09-19T11:56:23;11.27;;;2.20;;
22939;SDS011;11636;52.086;5.090;2023-09-19T11:59:19;7.85;;;1.85;;
22939;SDS011;11636;52.086;5.090;2023-09-19T12:02:18;7.10;;;1.67;;
22939;SDS011;11636;52.086;5.090;2023-09-19T12:05:28;6.85;;;1.52;;
22939;SDS011;11636;52.086;5.090;2023-09-19T12:08:26;5.07;;;1.50;;
22939;SDS011;11636;52.086;5.090;2023-09-19T12:11:21;10.98;;;2.22;;
22939;SDS011;11636;52.086;5.090;2023-09-19T12:14:10;12.18;;;2.05;;
22939;SDS011;11636;52.086;5.090;2023-09-19T12:17:04;9.70;;;1.75;;
22939;SDS011;11636;52.086;5.090;2023-09-19T12:19:58;10.98;;;2.08;;
22939;SDS011;11636;52.086;5.090;2023-09-19T12:22:54;8.32;;;1.90;;
22939;SDS011;11636;52.086;5.090;2023-09-19T12:25:48;9.25;;;1.83;;
22939;SDS011;11636;52.086;5.090;2023-09-19T12:28:41;8.18;;;2.08;;
22939;SDS011;11636;52.086;5.090;2023-09-19T12:31:46;10.63;;;2.13;;
22939;SDS011;11636;52.086;5.090;2023-09-19T12:34:50;7.95;;;1.85;;
22939;SDS011;11636;52.086;5.090;2023-09-19T12:37:45;8.18;;;1.85;;
22939;SDS011;11636;52.086;5.090;2023-09-19T12:40:39;7.32;;;2.00;;
22939;SDS011;11636;52.086;5.090;2023-09-19T12:43:35;7.32;;;1.38;;
22939;SDS011;11636;52.086;5.090;2023-09-19T12:46:26;9.77;;;2.15;;
22939;SDS011;11636;52.086;5.090;2023-09-19T12:49:20;8.80;;;1.40;;
22939;SDS011;11636;52.086;5.090;2023-09-19T12:52:08;6.78;;;1.58;;
22939;SDS011;11636;52.086;5.090;2023-09-19T12:55:03;7.13;;;1.83;;
22939;SDS011;11636;52.086;5.090;2023-09-19T12:57:56;5.38;;;1.48;;
22939;SDS011;11636;52.086;5.090;2023-09-19T13:01:13;8.75;;;1.73;;
22939;SDS011;11636;52.086;5.090;2023-09-19T13:07:06;7.82;;;1.60;;
22939;SDS011;11636;52.086;5.090;2023-09-19T13:10:03;8.55;;;1.80;;
22939;SDS011;11636;52.086;5.090;2023-09-19T13:12:58;6.85;;;1.40;;
22939;SDS011;11636;52.086;5.090;2023-09-19T13:16:15;7.70;;;1.67;;
22939;SDS011;11636;52.086;5.090;2023-09-19T13:19:12;7.35;;;1.73;;
22939;SDS011;11636;52.086;5.090;2023-09-19T13:22:01;6.05;;;1.58;;
22939;SDS011;11636;52.086;5.090;2023-09-19T13:24:55;7.25;;;1.73;;
22939;SDS011;11636;52.086;5.090;2023-09-19T13:30:44;7.57;;;2.17;;
22939;SDS011;11636;52.086;5.090;2023-09-19T13:33:33;8.02;;;1.60;;
22939;SDS011;11636;52.086;5.090;2023-09-19T13:36:28;10.30;;;1.70;;
22939;SDS011;11636;52.086;5.090;2023-09-19T13:39:22;5.25;;;1.50;;
22939;SDS011;11636;52.086;5.090;2023-09-19T13:42:11;9.48;;;1.77;;
22939;SDS011;11636;52.086;5.090;2023-09-19T13:45:05;6.72;;;1.55;;
22939;SDS011;11636;52.086;5.090;2023-09-19T13:48:04;6.38;;;1.48;;
22939;SDS011;11636;52.086;5.090;2023-09-19T13:50:52;7.63;;;1.88;;
22939;SDS011;11636;52.086;5.090;2023-09-19T13:53:45;7.50;;;1.60;;
22939;SDS011;11636;52.086;5.090;2023-09-19T13:56:32;4.53;;;1.35;;
22939;SDS011;11636;52.086;5.090;2023-09-19T13:59:26;9.02;;;1.92;;
22939;SDS011;11636;52.086;5.090;2023-09-19T14:02:15;6.72;;;1.75;;
22939;SDS011;11636;52.086;5.090;2023-09-19T14:05:12;9.73;;;2.10;;
22939;SDS011;11636;52.086;5.090;2023-09-19T14:08:08;7.57;;;1.85;;
22939;SDS011;11636;52.086;5.090;2023-09-19T14:11:08;8.05;;;2.20;;
22939;SDS011;11636;52.086;5.090;2023-09-19T14:14:02;9.85;;;2.42;;
22939;SDS011;11636;52.086;5.090;2023-09-19T14:16:57;8.63;;;2.38;;
22939;SDS011;11636;52.086;5.090;2023-09-19T14:19:53;11.10;;;2.67;;
22939;SDS011;11636;52.086;5.090;2023-09-19T14:22:41;10.95;;;2.83;;
22939;SDS011;11636;52.086;5.090;2023-09-19T14:25:35;9.50;;;2.85;;
22939;SDS011;11636;52.086;5.090;2023-09-19T14:28:32;7.35;;;2.08;;
22939;SDS011;11636;52.086;5.090;2023-09-19T14:31:29;7.32;;;2.20;;
22939;SDS011;11636;52.086;5.090;2023-09-19T14:34:16;8.30;;;2.35;;
22939;SDS011;11636;52.086;5.090;2023-09-19T14:37:10;8.60;;;2.60;;
22939;SDS011;11636;52.086;5.090;2023-09-19T14:40:04;10.85;;;2.53;;
22939;SDS011;11636;52.086;5.090;2023-09-19T14:43:01;6.88;;;2.70;;
22939;SDS011;11636;52.086;5.090;2023-09-19T14:45:56;11.52;;;2.67;;
22939;SDS011;11636;52.086;5.090;2023-09-19T14:48:51;7.55;;;2.38;;
22939;SDS011;11636;52.086;5.090;2023-09-19T14:51:45;11.45;;;2.70;;
22939;SDS011;11636;52.086;5.090;2023-09-19T14:54:40;10.55;;;2.67;;
22939;SDS011;11636;52.086;5.090;2023-09-19T14:57:28;8.38;;;2.63;;
22939;SDS011;11636;52.086;5.090;2023-09-19T15:00:22;8.55;;;2.33;;
22939;SDS011;11636;52.086;5.090;2023-09-19T15:03:10;7.95;;;2.40;;
22939;SDS011;11636;52.086;5.090;2023-09-19T15:06:05;8.35;;;2.38;;
22939;SDS011;11636;52.086;5.090;2023-09-19T15:08:54;9.07;;;2.25;;
22939;SDS011;11636;52.086;5.090;2023-09-19T15:11:48;12.40;;;2.90;;
22939;SDS011;11636;52.086;5.090;2023-09-19T15:14:42;11.27;;;2.55;;
22939;SDS011;11636;52.086;5.090;2023-09-19T15:17:30;10.27;;;2.60;;
22939;SDS011;11636;52.086;5.090;2023-09-19T15:20:33;9.77;;;2.40;;
22939;SDS011;11636;52.086;5.090;2023-09-19T15:23:27;15.07;;;3.35;;
22939;SDS011;11636;52.086;5.090;2023-09-19T15:26:18;12.98;;;2.85;;
22939;SDS011;11636;52.086;5.090;2023-09-19T15:29:13;10.70;;;2.83;;
22939;SDS011;11636;52.086;5.090;2023-09-19T15:32:02;7.30;;;2.65;;
22939;SDS011;11636;52.086;5.090;2023-09-19T15:34:56;9.82;;;2.75;;
22939;SDS011;11636;52.086;5.090;2023-09-19T15:37:50;9.35;;;2.10;;
22939;SDS011;11636;52.086;5.090;2023-09-19T15:40:46;10.75;;;2.97;;
22939;SDS011;11636;52.086;5.090;2023-09-19T15:43:34;8.20;;;2.50;;
22939;SDS011;11636;52.086;5.090;2023-09-19T15:46:29;10.38;;;2.65;;
22939;SDS011;11636;52.086;5.090;2023-09-19T15:49:24;6.38;;;2.00;;
22939;SDS011;11636;52.086;5.090;2023-09-19T15:52:11;9.95;;;2.50;;
22939;SDS011;11636;52.086;5.090;2023-09-19T15:55:06;7.72;;;2.25;;
22939;SDS011;11636;52.086;5.090;2023-09-19T15:57:54;9.57;;;2.45;;
22939;SDS011;11636;52.086;5.090;2023-09-19T16:00:48;11.23;;;2.80;;
22939;SDS011;11636;52.086;5.090;2023-09-19T16:03:47;8.07;;;2.30;;
22939;SDS011;11636;52.086;5.090;2023-09-19T16:06:42;10.80;;;2.65;;
22939;SDS011;11636;52.086;5.090;2023-09-19T16:09:36;7.50;;;2.10;;
22939;SDS011;11636;52.086;5.090;2023-09-19T16:12:24;7.80;;;2.83;;
22939;SDS011;11636;52.086;5.090;2023-09-19T16:15:17;11.77;;;2.92;;
22939;SDS011;11636;52.086;5.090;2023-09-19T16:18:11;6.68;;;2.10;;
22939;SDS011;11636;52.086;5.090;2023-09-19T16:21:06;10.60;;;2.65;;
22939;SDS011;11636;52.086;5.090;2023-09-19T16:23:55;8.00;;;2.50;;
22939;SDS011;11636;52.086;5.090;2023-09-19T16:26:54;12.13;;;3.53;;
22939;SDS011;11636;52.086;5.090;2023-09-19T16:29:41;10.05;;;2.95;;
22939;SDS011;11636;52.086;5.090;2023-09-19T16:32:35;10.77;;;2.47;;
22939;SDS011;11636;52.086;5.090;2023-09-19T16:35:23;10.00;;;2.42;;
22939;SDS011;11636;52.086;5.090;2023-09-19T16:38:16;7.72;;;2.65;;
22939;SDS011;11636;52.086;5.090;2023-09-19T16:41:04;10.90;;;2.67;;
22939;SDS011;11636;52.086;5.090;2023-09-19T16:44:00;8.70;;;2.40;;
22939;SDS011;11636;52.086;5.090;2023-09-19T16:46:47;8.18;;;2.22;;
22939;SDS011;11636;52.086;5.090;2023-09-19T16:49:41;10.98;;;2.70;;
22939;SDS011;11636;52.086;5.090;2023-09-19T16:52:29;13.10;;;3.10;;
22939;SDS011;11636;52.086;5.090;2023-09-19T16:55:22;9.07;;;2.85;;
22939;SDS011;11636;52.086;5.090;2023-09-19T16:58:16;10.82;;;2.58;;
22939;SDS011;11636;52.086;5.090;2023-09-19T17:01:08;10.85;;;2.72;;
22939;SDS011;11636;52.086;5.090;2023-09-19T17:04:06;10.20;;;3.42;;
22939;SDS011;11636;52.086;5.090;2023-09-19T17:07:00;13.50;;;3.10;;
22939;SDS011;11636;52.086;5.090;2023-09-19T17:09:54;14.63;;;3.60;;
22939;SDS011;11636;52.086;5.090;2023-09-19T17:12:48;13.23;;;3.10;;
22939;SDS011;11636;52.086;5.090;2023-09-19T17:15:36;11.55;;;2.88;;
22939;SDS011;11636;52.086;5.090;2023-09-19T17:18:31;11.27;;;3.05;;
22939;SDS011;11636;52.086;5.090;2023-09-19T17:21:28;10.55;;;3.50;;
22939;SDS011;11636;52.086;5.090;2023-09-19T17:24:21;10.23;;;2.90;;
22939;SDS011;11636;52.086;5.090;2023-09-19T17:27:15;15.43;;;3.05;;
22939;SDS011;11636;52.086;5.090;2023-09-19T17:30:10;8.02;;;2.83;;
22939;SDS011;11636;52.086;5.090;2023-09-19T17:33:07;6.30;;;2.17;;
22939;SDS011;11636;52.086;5.090;2023-09-19T17:36:14;14.32;;;3.85;;
22939;SDS011;11636;52.086;5.090;2023-09-19T17:39:10;12.00;;;2.70;;
22939;SDS011;11636;52.086;5.090;2023-09-19T17:42:07;8.35;;;2.70;;
22939;SDS011;11636;52.086;5.090;2023-09-19T17:44:58;10.32;;;3.05;;
22939;SDS011;11636;52.086;5.090;2023-09-19T17:47:52;10.70;;;3.00;;
22939;SDS011;11636;52.086;5.090;2023-09-19T17:50:47;11.48;;;2.90;;